sensor_id;sensor_type;location;lat;lon;timestamp;P1;durP1;ratioP1;P2;durP2;ratioP2
40847;SDS011;26570;50.962;5.340;2023-06-22T00:05:07;8.52;;;1.35;;
40847;SDS011;26570;50.962;5.340;2023-06-22T00:08:19;7.30;;;1.60;;
40847;SDS011;26570;50.962;5.340;2023-06-22T00:11:08;10.05;;;1.88;;
40847;SDS011;26570;50.962;5.340;2023-06-22T00:13:59;11.93;;;2.33;;
40847;SDS011;26570;50.962;5.340;2023-06-22T00:16:49;11.55;;;2.08;;
40847;SDS011;26570;50.962;5.340;2023-06-22T00:19:46;9.45;;;1.80;;
40847;SDS011;26570;50.962;5.340;2023-06-22T00:22:46;6.38;;;1.85;;
40847;SDS011;26570;50.962;5.340;2023-06-22T00:26:05;10.30;;;2.58;;
40847;SDS011;26570;50.962;5.340;2023-06-22T00:29:05;11.50;;;2.88;;
40847;SDS011;26570;50.962;5.340;2023-06-22T00:31:54;19.67;;;4.80;;
40847;SDS011;26570;50.962;5.340;2023-06-22T00:34:42;19.63;;;5.15;;
40847;SDS011;26570;50.962;5.340;2023-06-22T00:37:31;18.73;;;3.80;;
40847;SDS011;26570;50.962;5.340;2023-06-22T00:40:27;19.20;;;4.78;;
40847;SDS011;26570;50.962;5.340;2023-06-22T00:43:39;19.73;;;4.47;;
40847;SDS011;26570;50.962;5.340;2023-06-22T00:46:37;18.77;;;4.97;;
40847;SDS011;26570;50.962;5.340;2023-06-22T00:49:25;20.05;;;5.45;;
40847;SDS011;26570;50.962;5.340;2023-06-22T00:52:23;34.35;;;7.90;;
40847;SDS011;26570;50.962;5.340;2023-06-22T00:55:15;35.35;;;8.73;;
40847;SDS011;26570;50.962;5.340;2023-06-22T00:58:21;33.75;;;7.57;;
40847;SDS011;26570;50.962;5.340;2023-06-22T01:01:16;38.97;;;9.98;;
40847;SDS011;26570;50.962;5.340;2023-06-22T01:04:07;46.53;;;11.20;;
40847;SDS011;26570;50.962;5.340;2023-06-22T01:07:25;39.05;;;8.95;;
40847;SDS011;26570;50.962;5.340;2023-06-22T01:10:25;32.03;;;7.60;;
40847;SDS011;26570;50.962;5.340;2023-06-22T01:17:28;30.17;;;4.85;;
40847;SDS011;26570;50.962;5.340;2023-06-22T01:20:31;15.52;;;3.80;;
40847;SDS011;26570;50.962;5.340;2023-06-22T01:29:57;9.35;;;2.63;;
40847;SDS011;26570;50.962;5.340;2023-06-22T01:32:54;9.40;;;2.45;;
40847;SDS011;26570;50.962;5.340;2023-06-22T01:35:52;8.38;;;2.15;;
40847;SDS011;26570;50.962;5.340;2023-06-22T01:38:41;7.25;;;1.83;;
40847;SDS011;26570;50.962;5.340;2023-06-22T01:41:29;7.90;;;2.20;;
40847;SDS011;26570;50.962;5.340;2023-06-22T01:44:26;5.93;;;2.42;;
40847;SDS011;26570;50.962;5.340;2023-06-22T01:47:14;7.72;;;2.45;;
40847;SDS011;26570;50.962;5.340;2023-06-22T01:50:19;9.07;;;2.88;;
40847;SDS011;26570;50.962;5.340;2023-06-22T01:53:25;8.57;;;2.47;;
40847;SDS011;26570;50.962;5.340;2023-06-22T01:56:24;8.38;;;3.13;;
40847;SDS011;26570;50.962;5.340;2023-06-22T02:03:21;10.82;;;5.00;;
40847;SDS011;26570;50.962;5.340;2023-06-22T02:06:39;9.18;;;3.22;;
40847;SDS011;26570;50.962;5.340;2023-06-22T02:10:00;8.73;;;3.45;;
40847;SDS011;26570;50.962;5.340;2023-06-22T02:13:05;10.00;;;3.63;;
40847;SDS011;26570;50.962;5.340;2023-06-22T02:16:26;8.73;;;3.50;;
40847;SDS011;26570;50.962;5.340;2023-06-22T02:19:15;6.75;;;4.15;;
40847;SDS011;26570;50.962;5.340;2023-06-22T02:22:08;12.35;;;5.20;;
40847;SDS011;26570;50.962;5.340;2023-06-22T02:24:59;10.27;;;5.75;;
40847;SDS011;26570;50.962;5.340;2023-06-22T02:28:11;9.00;;;4.65;;
40847;SDS011;26570;50.962;5.340;2023-06-22T02:31:08;7.90;;;5.47;;
40847;SDS011;26570;50.962;5.340;2023-06-22T02:34:06;12.63;;;6.05;;
40847;SDS011;26570;50.962;5.340;2023-06-22T02:37:26;9.50;;;6.38;;
40847;SDS011;26570;50.962;5.340;2023-06-22T02:40:38;9.38;;;7.18;;
40847;SDS011;26570;50.962;5.340;2023-06-22T02:43:29;12.30;;;6.80;;
40847;SDS011;26570;50.962;5.340;2023-06-22T02:46:48;10.93;;;7.65;;
40847;SDS011;26570;50.962;5.340;2023-06-22T02:49:53;12.57;;;6.90;;
40847;SDS011;26570;50.962;5.340;2023-06-22T02:53:24;13.23;;;8.65;;
40847;SDS011;26570;50.962;5.340;2023-06-22T02:56:17;15.93;;;9.70;;
40847;SDS011;26570;50.962;5.340;2023-06-22T02:59:45;12.52;;;9.60;;
40847;SDS011;26570;50.962;5.340;2023-06-22T03:02:46;13.68;;;9.38;;
40847;SDS011;26570;50.962;5.340;2023-06-22T03:06:00;14.40;;;9.68;;
40847;SDS011;26570;50.962;5.340;2023-06-22T03:09:23;11.35;;;9.35;;
40847;SDS011;26570;50.962;5.340;2023-06-22T03:13:12;13.63;;;9.50;;
40847;SDS011;26570;50.962;5.340;2023-06-22T03:19:45;15.13;;;11.45;;
40847;SDS011;26570;50.962;5.340;2023-06-22T03:22:40;12.80;;;10.82;;
40847;SDS011;26570;50.962;5.340;2023-06-22T03:26:03;15.77;;;12.07;;
40847;SDS011;26570;50.962;5.340;2023-06-22T03:28:57;19.27;;;13.30;;
40847;SDS011;26570;50.962;5.340;2023-06-22T03:35:52;15.67;;;12.70;;
40847;SDS011;26570;50.962;5.340;2023-06-22T03:39:15;15.32;;;13.40;;
40847;SDS011;26570;50.962;5.340;2023-06-22T03:42:44;17.33;;;13.77;;
40847;SDS011;26570;50.962;5.340;2023-06-22T03:46:05;18.90;;;13.30;;
40847;SDS011;26570;50.962;5.340;2023-06-22T03:50:00;16.10;;;13.30;;
40847;SDS011;26570;50.962;5.340;2023-06-22T03:53:07;15.95;;;13.18;;
40847;SDS011;26570;50.962;5.340;2023-06-22T03:56:27;17.17;;;13.10;;
40847;SDS011;26570;50.962;5.340;2023-06-22T03:59:24;16.40;;;13.83;;
40847;SDS011;26570;50.962;5.340;2023-06-22T04:02:21;18.02;;;13.38;;
40847;SDS011;26570;50.962;5.340;2023-06-22T04:05:19;16.20;;;14.27;;
40847;SDS011;26570;50.962;5.340;2023-06-22T04:08:39;16.65;;;12.38;;
40847;SDS011;26570;50.962;5.340;2023-06-22T04:12:04;19.83;;;13.40;;
40847;SDS011;26570;50.962;5.340;2023-06-22T04:15:14;15.70;;;13.38;;
40847;SDS011;26570;50.962;5.340;2023-06-22T04:18:33;18.63;;;13.13;;
40847;SDS011;26570;50.962;5.340;2023-06-22T04:21:53;17.70;;;13.60;;
40847;SDS011;26570;50.962;5.340;2023-06-22T04:25:14;16.50;;;12.52;;
40847;SDS011;26570;50.962;5.340;2023-06-22T04:28:33;13.75;;;11.52;;
40847;SDS011;26570;50.962;5.340;2023-06-22T04:31:46;17.63;;;13.52;;
40847;SDS011;26570;50.962;5.340;2023-06-22T04:35:13;20.10;;;13.48;;
40847;SDS011;26570;50.962;5.340;2023-06-22T04:38:02;16.77;;;12.98;;
40847;SDS011;26570;50.962;5.340;2023-06-22T04:40:49;17.02;;;13.50;;
40847;SDS011;26570;50.962;5.340;2023-06-22T04:44:18;18.17;;;11.77;;
40847;SDS011;26570;50.962;5.340;2023-06-22T04:47:33;14.68;;;13.05;;
40847;SDS011;26570;50.962;5.340;2023-06-22T04:50:46;15.88;;;10.43;;
40847;SDS011;26570;50.962;5.340;2023-06-22T04:54:03;14.07;;;12.35;;
40847;SDS011;26570;50.962;5.340;2023-06-22T04:57:09;16.50;;;13.40;;
40847;SDS011;26570;50.962;5.340;2023-06-22T04:59:55;19.10;;;13.02;;
40847;SDS011;26570;50.962;5.340;2023-06-22T05:02:48;16.67;;;13.43;;
40847;SDS011;26570;50.962;5.340;2023-06-22T05:05:47;17.20;;;14.45;;
40847;SDS011;26570;50.962;5.340;2023-06-22T05:08:57;17.25;;;14.05;;
40847;SDS011;26570;50.962;5.340;2023-06-22T05:12:11;17.98;;;15.55;;
40847;SDS011;26570;50.962;5.340;2023-06-22T05:15:44;19.48;;;15.13;;
40847;SDS011;26570;50.962;5.340;2023-06-22T05:18:52;19.45;;;16.02;;
40847;SDS011;26570;50.962;5.340;2023-06-22T05:22:05;25.67;;;17.63;;
40847;SDS011;26570;50.962;5.340;2023-06-22T05:25:26;19.73;;;15.75;;
40847;SDS011;26570;50.962;5.340;2023-06-22T05:28:32;19.38;;;14.98;;
40847;SDS011;26570;50.962;5.340;2023-06-22T05:32:52;23.92;;;17.90;;
40847;SDS011;26570;50.962;5.340;2023-06-22T05:36:14;20.00;;;16.70;;
40847;SDS011;26570;50.962;5.340;2023-06-22T05:39:31;19.70;;;17.15;;
40847;SDS011;26570;50.962;5.340;2023-06-22T05:43:00;20.95;;;16.52;;
40847;SDS011;26570;50.962;5.340;2023-06-22T05:46:20;20.08;;;17.40;;
40847;SDS011;26570;50.962;5.340;2023-06-22T05:49:11;22.48;;;18.20;;
40847;SDS011;26570;50.962;5.340;2023-06-22T05:52:28;22.02;;;18.23;;
40847;SDS011;26570;50.962;5.340;2023-06-22T05:56:18;28.65;;;19.10;;
40847;SDS011;26570;50.962;5.340;2023-06-22T05:59:26;22.13;;;17.38;;
40847;SDS011;26570;50.962;5.340;2023-06-22T06:02:34;23.50;;;18.13;;
40847;SDS011;26570;50.962;5.340;2023-06-22T06:06:09;22.92;;;18.15;;
40847;SDS011;26570;50.962;5.340;2023-06-22T06:09:10;24.30;;;19.58;;
40847;SDS011;26570;50.962;5.340;2023-06-22T06:12:38;22.73;;;18.63;;
40847;SDS011;26570;50.962;5.340;2023-06-22T06:22:35;27.83;;;19.13;;
40847;SDS011;26570;50.962;5.340;2023-06-22T06:25:27;27.42;;;18.77;;
40847;SDS011;26570;50.962;5.340;2023-06-22T06:28:27;22.55;;;19.40;;
40847;SDS011;26570;50.962;5.340;2023-06-22T06:31:41;25.80;;;18.95;;
40847;SDS011;26570;50.962;5.340;2023-06-22T06:35:02;24.60;;;18.73;;
40847;SDS011;26570;50.962;5.340;2023-06-22T06:38:41;24.15;;;19.63;;
40847;SDS011;26570;50.962;5.340;2023-06-22T06:45:25;21.63;;;19.05;;
40847;SDS011;26570;50.962;5.340;2023-06-22T06:48:43;23.27;;;18.40;;
40847;SDS011;26570;50.962;5.340;2023-06-22T06:52:00;25.42;;;19.63;;
40847;SDS011;26570;50.962;5.340;2023-06-22T06:55:08;21.23;;;17.58;;
40847;SDS011;26570;50.962;5.340;2023-06-22T06:58:17;23.77;;;18.75;;
40847;SDS011;26570;50.962;5.340;2023-06-22T07:01:29;23.95;;;18.65;;
40847;SDS011;26570;50.962;5.340;2023-06-22T07:04:22;20.52;;;17.52;;
40847;SDS011;26570;50.962;5.340;2023-06-22T07:07:34;22.83;;;16.60;;
40847;SDS011;26570;50.962;5.340;2023-06-22T07:10:31;25.60;;;15.73;;
40847;SDS011;26570;50.962;5.340;2023-06-22T07:13:21;20.98;;;14.80;;
40847;SDS011;26570;50.962;5.340;2023-06-22T07:16:21;18.80;;;13.48;;
40847;SDS011;26570;50.962;5.340;2023-06-22T07:19:17;18.88;;;13.27;;
40847;SDS011;26570;50.962;5.340;2023-06-22T07:22:25;18.10;;;11.82;;
40847;SDS011;26570;50.962;5.340;2023-06-22T07:25:21;18.70;;;11.65;;
40847;SDS011;26570;50.962;5.340;2023-06-22T07:28:11;24.00;;;13.18;;
40847;SDS011;26570;50.962;5.340;2023-06-22T07:31:36;18.50;;;12.05;;
40847;SDS011;26570;50.962;5.340;2023-06-22T07:35:04;22.90;;;13.88;;
40847;SDS011;26570;50.962;5.340;2023-06-22T07:38:22;16.00;;;11.98;;
40847;SDS011;26570;50.962;5.340;2023-06-22T07:41:12;17.48;;;13.02;;
40847;SDS011;26570;50.962;5.340;2023-06-22T07:44:12;17.15;;;13.32;;
40847;SDS011;26570;50.962;5.340;2023-06-22T07:47:33;21.63;;;13.23;;
40847;SDS011;26570;50.962;5.340;2023-06-22T07:51:03;18.13;;;13.77;;
40847;SDS011;26570;50.962;5.340;2023-06-22T07:54:38;23.00;;;14.30;;
40847;SDS011;26570;50.962;5.340;2023-06-22T07:57:28;20.77;;;14.18;;
40847;SDS011;26570;50.962;5.340;2023-06-22T08:01:01;20.33;;;14.50;;
40847;SDS011;26570;50.962;5.340;2023-06-22T08:03:55;21.33;;;15.02;;
40847;SDS011;26570;50.962;5.340;2023-06-22T08:06:54;19.75;;;14.75;;
40847;SDS011;26570;50.962;5.340;2023-06-22T08:09:50;21.63;;;13.85;;
40847;SDS011;26570;50.962;5.340;2023-06-22T08:13:11;17.10;;;14.13;;
40847;SDS011;26570;50.962;5.340;2023-06-22T08:16:32;15.20;;;13.48;;
40847;SDS011;26570;50.962;5.340;2023-06-22T08:19:29;16.20;;;13.25;;
40847;SDS011;26570;50.962;5.340;2023-06-22T08:23:03;15.77;;;12.73;;
40847;SDS011;26570;50.962;5.340;2023-06-22T08:26:28;15.10;;;12.38;;
40847;SDS011;26570;50.962;5.340;2023-06-22T08:29:22;14.43;;;12.90;;
40847;SDS011;26570;50.962;5.340;2023-06-22T08:32:21;15.93;;;13.57;;
40847;SDS011;26570;50.962;5.340;2023-06-22T08:35:40;16.73;;;13.75;;
40847;SDS011;26570;50.962;5.340;2023-06-22T08:38:32;18.42;;;13.75;;
40847;SDS011;26570;50.962;5.340;2023-06-22T08:41:21;17.85;;;13.40;;
40847;SDS011;26570;50.962;5.340;2023-06-22T08:44:19;15.82;;;13.10;;
40847;SDS011;26570;50.962;5.340;2023-06-22T08:50:51;14.32;;;12.75;;
40847;SDS011;26570;50.962;5.340;2023-06-22T08:53:45;12.95;;;11.32;;
40847;SDS011;26570;50.962;5.340;2023-06-22T08:57:27;13.57;;;12.18;;
40847;SDS011;26570;50.962;5.340;2023-06-22T09:00:40;16.08;;;13.75;;
40847;SDS011;26570;50.962;5.340;2023-06-22T09:03:30;16.52;;;13.70;;
40847;SDS011;26570;50.962;5.340;2023-06-22T09:06:28;17.20;;;15.30;;
40847;SDS011;26570;50.962;5.340;2023-06-22T09:09:58;19.38;;;15.07;;
40847;SDS011;26570;50.962;5.340;2023-06-22T09:12:49;15.88;;;14.23;;
40847;SDS011;26570;50.962;5.340;2023-06-22T09:15:46;15.95;;;14.35;;
40847;SDS011;26570;50.962;5.340;2023-06-22T09:19:29;20.13;;;15.82;;
40847;SDS011;26570;50.962;5.340;2023-06-22T09:25:59;19.95;;;15.95;;
40847;SDS011;26570;50.962;5.340;2023-06-22T09:29:28;17.23;;;15.38;;
40847;SDS011;26570;50.962;5.340;2023-06-22T09:32:26;17.30;;;14.77;;
40847;SDS011;26570;50.962;5.340;2023-06-22T09:35:41;17.35;;;15.48;;
40847;SDS011;26570;50.962;5.340;2023-06-22T09:38:58;20.63;;;16.73;;
40847;SDS011;26570;50.962;5.340;2023-06-22T09:42:16;21.02;;;16.15;;
40847;SDS011;26570;50.962;5.340;2023-06-22T09:45:51;16.85;;;15.10;;
40847;SDS011;26570;50.962;5.340;2023-06-22T09:49:47;18.50;;;15.40;;
40847;SDS011;26570;50.962;5.340;2023-06-22T09:52:35;18.70;;;16.83;;
40847;SDS011;26570;50.962;5.340;2023-06-22T09:55:44;18.35;;;16.20;;
40847;SDS011;26570;50.962;5.340;2023-06-22T09:59:17;20.90;;;15.57;;
40847;SDS011;26570;50.962;5.340;2023-06-22T10:06:33;20.40;;;18.45;;
40847;SDS011;26570;50.962;5.340;2023-06-22T10:25:47;25.83;;;21.95;;
40847;SDS011;26570;50.962;5.340;2023-06-22T10:33:30;28.50;;;24.67;;
40847;SDS011;26570;50.962;5.340;2023-06-22T10:37:17;29.13;;;25.77;;
40847;SDS011;26570;50.962;5.340;2023-06-22T10:44:43;29.65;;;26.27;;
40847;SDS011;26570;50.962;5.340;2023-06-22T10:48:32;39.15;;;30.00;;
40847;SDS011;26570;50.962;5.340;2023-06-22T10:52:07;33.05;;;28.92;;
40847;SDS011;26570;50.962;5.340;2023-06-22T10:55:13;36.20;;;29.52;;
40847;SDS011;26570;50.962;5.340;2023-06-22T11:06:47;36.85;;;31.10;;
40847;SDS011;26570;50.962;5.340;2023-06-22T11:10:21;33.90;;;29.45;;
40847;SDS011;26570;50.962;5.340;2023-06-22T11:13:33;34.33;;;29.98;;
40847;SDS011;26570;50.962;5.340;2023-06-22T11:16:57;38.25;;;31.00;;
40847;SDS011;26570;50.962;5.340;2023-06-22T11:23:46;38.03;;;30.63;;
40847;SDS011;26570;50.962;5.340;2023-06-22T11:27:05;36.60;;;30.58;;
40847;SDS011;26570;50.962;5.340;2023-06-22T11:30:43;39.72;;;30.52;;
40847;SDS011;26570;50.962;5.340;2023-06-22T11:34:16;39.05;;;32.50;;
40847;SDS011;26570;50.962;5.340;2023-06-22T11:37:48;32.65;;;28.27;;
40847;SDS011;26570;50.962;5.340;2023-06-22T11:41:02;32.00;;;28.55;;
40847;SDS011;26570;50.962;5.340;2023-06-22T11:47:17;30.25;;;26.95;;
40847;SDS011;26570;50.962;5.340;2023-06-22T11:50:48;30.10;;;26.88;;
40847;SDS011;26570;50.962;5.340;2023-06-22T11:54:28;31.42;;;27.55;;
40847;SDS011;26570;50.962;5.340;2023-06-22T11:57:36;30.83;;;27.25;;
40847;SDS011;26570;50.962;5.340;2023-06-22T12:00:51;33.92;;;27.60;;
40847;SDS011;26570;50.962;5.340;2023-06-22T12:04:08;34.17;;;28.30;;
40847;SDS011;26570;50.962;5.340;2023-06-22T12:07:36;33.58;;;29.67;;
40847;SDS011;26570;50.962;5.340;2023-06-22T12:10:25;34.88;;;29.33;;
40847;SDS011;26570;50.962;5.340;2023-06-22T12:13:23;36.65;;;32.35;;
40847;SDS011;26570;50.962;5.340;2023-06-22T12:16:15;38.25;;;33.33;;
40847;SDS011;26570;50.962;5.340;2023-06-22T12:19:43;37.75;;;33.67;;
40847;SDS011;26570;50.962;5.340;2023-06-22T12:22:44;38.60;;;33.55;;
40847;SDS011;26570;50.962;5.340;2023-06-22T12:25:59;36.70;;;32.72;;
40847;SDS011;26570;50.962;5.340;2023-06-22T12:29:17;41.88;;;34.72;;
40847;SDS011;26570;50.962;5.340;2023-06-22T12:32:23;42.38;;;34.30;;
40847;SDS011;26570;50.962;5.340;2023-06-22T12:35:40;46.83;;;36.28;;
40847;SDS011;26570;50.962;5.340;2023-06-22T12:38:54;41.17;;;36.28;;
40847;SDS011;26570;50.962;5.340;2023-06-22T12:42:27;41.80;;;35.97;;
40847;SDS011;26570;50.962;5.340;2023-06-22T12:45:37;45.80;;;36.97;;
40847;SDS011;26570;50.962;5.340;2023-06-22T12:48:52;44.00;;;37.63;;
40847;SDS011;26570;50.962;5.340;2023-06-22T12:51:40;46.35;;;38.67;;
40847;SDS011;26570;50.962;5.340;2023-06-22T12:54:33;45.95;;;38.58;;
40847;SDS011;26570;50.962;5.340;2023-06-22T12:57:51;48.67;;;39.83;;
40847;SDS011;26570;50.962;5.340;2023-06-22T13:01:25;42.35;;;37.03;;
40847;SDS011;26570;50.962;5.340;2023-06-22T13:04:59;47.15;;;37.58;;
40847;SDS011;26570;50.962;5.340;2023-06-22T13:07:55;49.33;;;40.53;;
40847;SDS011;26570;50.962;5.340;2023-06-22T13:11:15;47.38;;;35.88;;
40847;SDS011;26570;50.962;5.340;2023-06-22T13:14:12;43.40;;;36.30;;
40847;SDS011;26570;50.962;5.340;2023-06-22T13:17:49;45.08;;;34.63;;
40847;SDS011;26570;50.962;5.340;2023-06-22T13:20:47;41.72;;;32.83;;
40847;SDS011;26570;50.962;5.340;2023-06-22T13:24:06;36.72;;;31.48;;
40847;SDS011;26570;50.962;5.340;2023-06-22T13:30:36;43.83;;;30.85;;
40847;SDS011;26570;50.962;5.340;2023-06-22T13:33:58;38.38;;;28.58;;
40847;SDS011;26570;50.962;5.340;2023-06-22T13:44:43;31.25;;;26.13;;
40847;SDS011;26570;50.962;5.340;2023-06-22T13:47:51;31.58;;;26.73;;
40847;SDS011;26570;50.962;5.340;2023-06-22T13:51:28;35.63;;;28.90;;
40847;SDS011;26570;50.962;5.340;2023-06-22T13:55:08;38.17;;;30.50;;
40847;SDS011;26570;50.962;5.340;2023-06-22T13:58:49;44.87;;;34.50;;
40847;SDS011;26570;50.962;5.340;2023-06-22T14:02:32;49.20;;;35.13;;
40847;SDS011;26570;50.962;5.340;2023-06-22T14:05:49;47.55;;;36.03;;
40847;SDS011;26570;50.962;5.340;2023-06-22T14:19:53;46.90;;;36.90;;
40847;SDS011;26570;50.962;5.340;2023-06-22T14:23:11;49.97;;;36.65;;
40847;SDS011;26570;50.962;5.340;2023-06-22T14:26:36;45.63;;;37.17;;
40847;SDS011;26570;50.962;5.340;2023-06-22T14:30:32;50.13;;;40.20;;
40847;SDS011;26570;50.962;5.340;2023-06-22T14:34:12;57.40;;;41.30;;
40847;SDS011;26570;50.962;5.340;2023-06-22T14:46:07;53.23;;;41.40;;
40847;SDS011;26570;50.962;5.340;2023-06-22T14:49:12;49.83;;;38.73;;
40847;SDS011;26570;50.962;5.340;2023-06-22T14:52:54;51.27;;;35.73;;
40847;SDS011;26570;50.962;5.340;2023-06-22T14:56:18;46.13;;;35.43;;
40847;SDS011;26570;50.962;5.340;2023-06-22T14:59:48;47.83;;;33.27;;
40847;SDS011;26570;50.962;5.340;2023-06-22T15:06:23;35.00;;;28.33;;
40847;SDS011;26570;50.962;5.340;2023-06-22T15:13:30;32.83;;;27.30;;
40847;SDS011;26570;50.962;5.340;2023-06-22T15:16:44;36.07;;;26.00;;
40847;SDS011;26570;50.962;5.340;2023-06-22T15:20:27;36.17;;;26.50;;
40847;SDS011;26570;50.962;5.340;2023-06-22T15:27:34;31.33;;;25.90;;
40847;SDS011;26570;50.962;5.340;2023-06-22T15:31:11;28.87;;;23.67;;
40847;SDS011;26570;50.962;5.340;2023-06-22T15:38:37;28.10;;;22.73;;
40847;SDS011;26570;50.962;5.340;2023-06-22T15:49:33;33.47;;;24.87;;
40847;SDS011;26570;50.962;5.340;2023-06-22T16:01:41;32.70;;;25.17;;
40847;SDS011;26570;50.962;5.340;2023-06-22T16:08:30;25.23;;;21.73;;
40847;SDS011;26570;50.962;5.340;2023-06-22T16:12:18;26.63;;;20.47;;
40847;SDS011;26570;50.962;5.340;2023-06-22T16:16:02;25.37;;;18.67;;
40847;SDS011;26570;50.962;5.340;2023-06-22T16:20:05;20.97;;;16.83;;
40847;SDS011;26570;50.962;5.340;2023-06-22T16:23:53;21.80;;;17.93;;
40847;SDS011;26570;50.962;5.340;2023-06-22T16:30:35;18.43;;;16.33;;
40847;SDS011;26570;50.962;5.340;2023-06-22T16:33:30;21.70;;;19.10;;
40847;SDS011;26570;50.962;5.340;2023-06-22T16:37:02;26.17;;;20.93;;
40847;SDS011;26570;50.962;5.340;2023-06-22T16:40:28;24.30;;;20.43;;
40847;SDS011;26570;50.962;5.340;2023-06-22T16:43:23;23.50;;;20.00;;
40847;SDS011;26570;50.962;5.340;2023-06-22T16:46:22;26.90;;;22.30;;
40847;SDS011;26570;50.962;5.340;2023-06-22T16:49:52;26.27;;;21.43;;
40847;SDS011;26570;50.962;5.340;2023-06-22T16:53:11;30.43;;;23.57;;
40847;SDS011;26570;50.962;5.340;2023-06-22T16:56:31;33.70;;;25.00;;
40847;SDS011;26570;50.962;5.340;2023-06-22T17:00:11;31.63;;;25.70;;
40847;SDS011;26570;50.962;5.340;2023-06-22T17:04:05;38.70;;;30.27;;
40847;SDS011;26570;50.962;5.340;2023-06-22T17:07:43;39.57;;;28.03;;
40847;SDS011;26570;50.962;5.340;2023-06-22T17:11:25;43.53;;;30.73;;
40847;SDS011;26570;50.962;5.340;2023-06-22T17:14:56;41.70;;;31.70;;
40847;SDS011;26570;50.962;5.340;2023-06-22T17:18:44;37.13;;;32.93;;
40847;SDS011;26570;50.962;5.340;2023-06-22T17:22:05;43.30;;;33.90;;
40847;SDS011;26570;50.962;5.340;2023-06-22T17:26:17;43.13;;;34.80;;
40847;SDS011;26570;50.962;5.340;2023-06-22T17:29:44;45.80;;;37.58;;
40847;SDS011;26570;50.962;5.340;2023-06-22T17:32:56;52.03;;;40.67;;
40847;SDS011;26570;50.962;5.340;2023-06-22T17:40:07;54.10;;;42.60;;
40847;SDS011;26570;50.962;5.340;2023-06-22T17:43:50;52.67;;;42.63;;
40847;SDS011;26570;50.962;5.340;2023-06-22T17:47:24;44.37;;;38.10;;
40847;SDS011;26570;50.962;5.340;2023-06-22T17:58:25;52.60;;;44.00;;
40847;SDS011;26570;50.962;5.340;2023-06-22T18:02:23;52.33;;;43.00;;
40847;SDS011;26570;50.962;5.340;2023-06-22T18:05:32;56.40;;;47.20;;
40847;SDS011;26570;50.962;5.340;2023-06-22T18:08:50;61.50;;;49.17;;
40847;SDS011;26570;50.962;5.340;2023-06-22T18:11:59;58.83;;;48.80;;
40847;SDS011;26570;50.962;5.340;2023-06-22T18:22:08;61.63;;;46.43;;
40847;SDS011;26570;50.962;5.340;2023-06-22T18:25:23;57.63;;;49.23;;
40847;SDS011;26570;50.962;5.340;2023-06-22T18:28:39;68.83;;;51.27;;
40847;SDS011;26570;50.962;5.340;2023-06-22T18:32:11;66.43;;;51.85;;
40847;SDS011;26570;50.962;5.340;2023-06-22T18:35:45;66.07;;;53.40;;
40847;SDS011;26570;50.962;5.340;2023-06-22T18:38:44;68.43;;;51.13;;
40847;SDS011;26570;50.962;5.340;2023-06-22T18:42:14;63.60;;;51.35;;
40847;SDS011;26570;50.962;5.340;2023-06-22T18:45:28;66.72;;;52.65;;
40847;SDS011;26570;50.962;5.340;2023-06-22T18:48:58;66.35;;;53.05;;
40847;SDS011;26570;50.962;5.340;2023-06-22T18:52:24;64.35;;;52.53;;
40847;SDS011;26570;50.962;5.340;2023-06-22T18:55:20;64.63;;;50.78;;
40847;SDS011;26570;50.962;5.340;2023-06-22T18:58:30;64.00;;;50.55;;
40847;SDS011;26570;50.962;5.340;2023-06-22T19:01:59;70.93;;;53.25;;
40847;SDS011;26570;50.962;5.340;2023-06-22T19:08:22;73.13;;;56.20;;
40847;SDS011;26570;50.962;5.340;2023-06-22T19:22:45;67.15;;;53.10;;
40847;SDS011;26570;50.962;5.340;2023-06-22T19:25:55;68.07;;;51.95;;
40847;SDS011;26570;50.962;5.340;2023-06-22T19:29:18;65.07;;;51.38;;
40847;SDS011;26570;50.962;5.340;2023-06-22T19:32:15;67.82;;;51.88;;
40847;SDS011;26570;50.962;5.340;2023-06-22T19:35:41;60.90;;;50.10;;
40847;SDS011;26570;50.962;5.340;2023-06-22T19:38:31;63.70;;;49.00;;
40847;SDS011;26570;50.962;5.340;2023-06-22T19:41:41;67.93;;;51.00;;
40847;SDS011;26570;50.962;5.340;2023-06-22T19:45:22;64.87;;;49.37;;
40847;SDS011;26570;50.962;5.340;2023-06-22T19:48:42;62.17;;;48.42;;
40847;SDS011;26570;50.962;5.340;2023-06-22T19:55:48;41.67;;;31.77;;
40847;SDS011;26570;50.962;5.340;2023-06-22T19:59:32;34.07;;;27.93;;
40847;SDS011;26570;50.962;5.340;2023-06-22T20:07:33;30.63;;;24.27;;
40847;SDS011;26570;50.962;5.340;2023-06-22T20:14:45;28.30;;;22.47;;
40847;SDS011;26570;50.962;5.340;2023-06-22T20:18:17;23.90;;;20.80;;
40847;SDS011;26570;50.962;5.340;2023-06-22T20:21:47;26.00;;;21.20;;
40847;SDS011;26570;50.962;5.340;2023-06-22T20:25:18;29.77;;;22.00;;
40847;SDS011;26570;50.962;5.340;2023-06-22T20:29:24;29.47;;;22.57;;
40847;SDS011;26570;50.962;5.340;2023-06-22T20:32:58;32.03;;;25.17;;
40847;SDS011;26570;50.962;5.340;2023-06-22T20:39:59;32.50;;;26.38;;
40847;SDS011;26570;50.962;5.340;2023-06-22T20:42:53;34.75;;;26.83;;
40847;SDS011;26570;50.962;5.340;2023-06-22T20:45:53;35.07;;;27.57;;
40847;SDS011;26570;50.962;5.340;2023-06-22T20:49:00;41.67;;;29.23;;
40847;SDS011;26570;50.962;5.340;2023-06-22T20:52:06;38.03;;;29.02;;
40847;SDS011;26570;50.962;5.340;2023-06-22T20:55:27;42.17;;;32.33;;
40847;SDS011;26570;50.962;5.340;2023-06-22T20:58:26;39.03;;;31.30;;
40847;SDS011;26570;50.962;5.340;2023-06-22T21:01:23;45.15;;;35.25;;
40847;SDS011;26570;50.962;5.340;2023-06-22T21:04:47;45.50;;;34.05;;
40847;SDS011;26570;50.962;5.340;2023-06-22T21:11:55;51.83;;;35.77;;
40847;SDS011;26570;50.962;5.340;2023-06-22T21:15:06;48.17;;;36.40;;
40847;SDS011;26570;50.962;5.340;2023-06-22T21:17:53;55.10;;;38.67;;
40847;SDS011;26570;50.962;5.340;2023-06-22T21:21:03;50.67;;;38.07;;
40847;SDS011;26570;50.962;5.340;2023-06-22T21:24:33;52.47;;;39.67;;
40847;SDS011;26570;50.962;5.340;2023-06-22T21:27:43;52.13;;;40.13;;
40847;SDS011;26570;50.962;5.340;2023-06-22T21:30:53;55.08;;;39.15;;
40847;SDS011;26570;50.962;5.340;2023-06-22T21:45:55;51.77;;;40.07;;
40847;SDS011;26570;50.962;5.340;2023-06-22T21:49:24;55.23;;;41.33;;
40847;SDS011;26570;50.962;5.340;2023-06-22T21:52:57;57.37;;;40.57;;
40847;SDS011;26570;50.962;5.340;2023-06-22T21:56:41;62.83;;;43.00;;
40847;SDS011;26570;50.962;5.340;2023-06-22T22:00:10;63.00;;;44.83;;
40847;SDS011;26570;50.962;5.340;2023-06-22T22:03:57;65.27;;;45.37;;
40847;SDS011;26570;50.962;5.340;2023-06-22T22:07:30;65.63;;;45.15;;
40847;SDS011;26570;50.962;5.340;2023-06-22T22:11:08;75.30;;;50.33;;
40847;SDS011;26570;50.962;5.340;2023-06-22T22:14:54;69.17;;;50.57;;
40847;SDS011;26570;50.962;5.340;2023-06-22T22:18:10;80.07;;;53.03;;
40847;SDS011;26570;50.962;5.340;2023-06-22T22:21:20;83.07;;;54.40;;
40847;SDS011;26570;50.962;5.340;2023-06-22T22:28:18;80.67;;;55.07;;
40847;SDS011;26570;50.962;5.340;2023-06-22T22:31:05;89.00;;;59.53;;
40847;SDS011;26570;50.962;5.340;2023-06-22T22:38:29;105.77;;;66.10;;
40847;SDS011;26570;50.962;5.340;2023-06-22T22:53:05;118.87;;;75.37;;
40847;SDS011;26570;50.962;5.340;2023-06-22T22:56:04;122.70;;;76.97;;
40847;SDS011;26570;50.962;5.340;2023-06-22T22:59:13;129.20;;;78.03;;
